createdAt,value
2018-10-11T00:01:31.970Z,21.56
2018-10-11T00:03:58.975Z,21.55
2018-10-11T00:06:25.990Z,21.55
2018-10-11T00:08:53.055Z,21.55
2018-10-11T00:11:20.072Z,21.55
2018-10-11T00:13:47.143Z,21.55
2018-10-11T00:16:14.162Z,21.55
2018-10-11T00:18:41.218Z,21.55
2018-10-11T00:21:08.247Z,21.55
2018-10-11T00:23:35.274Z,21.55
2018-10-11T00:26:02.325Z,21.55
2018-10-11T00:28:29.364Z,21.54
2018-10-11T00:30:56.368Z,21.54
2018-10-11T00:33:23.436Z,21.55
2018-10-11T00:35:50.460Z,21.55
2018-10-11T00:38:17.529Z,21.53
2018-10-11T00:40:44.561Z,21.54
2018-10-11T00:43:11.593Z,21.54
2018-10-11T00:45:38.622Z,21.54
2018-10-11T00:48:05.623Z,21.54
2018-10-11T00:50:32.642Z,21.54
2018-10-11T00:52:59.664Z,21.54
2018-10-11T00:55:26.707Z,21.54
2018-10-11T00:57:53.849Z,21.52
2018-10-11T01:00:20.880Z,21.52
2018-10-11T01:02:47.905Z,21.53
2018-10-11T01:05:14.985Z,21.54
2018-10-11T01:07:42.049Z,21.52
2018-10-11T01:10:09.231Z,21.52
2018-10-11T01:12:36.201Z,21.53
2018-10-11T01:15:03.229Z,21.53
2018-10-11T01:17:30.261Z,21.53
2018-10-11T01:19:57.252Z,21.53
2018-10-11T01:22:24.260Z,21.52
2018-10-11T01:24:51.309Z,21.52
2018-10-11T01:27:18.386Z,21.52
2018-10-11T01:29:45.474Z,21.51
2018-10-11T01:32:12.551Z,21.52
2018-10-11T01:34:39.593Z,21.53
2018-10-11T01:37:06.626Z,21.51
2018-10-11T01:39:33.674Z,21.52
2018-10-11T01:42:00.693Z,21.51
2018-10-11T01:44:27.714Z,21.52
2018-10-11T01:46:54.780Z,21.53
2018-10-11T01:49:21.816Z,21.52
2018-10-11T01:51:48.836Z,21.52
2018-10-11T01:54:15.876Z,21.52
2018-10-11T01:56:42.929Z,21.52
2018-10-11T01:59:09.977Z,21.51
2018-10-11T02:01:37.003Z,21.52
2018-10-11T02:04:04.026Z,21.51
2018-10-11T02:06:31.053Z,21.52
2018-10-11T02:08:58.093Z,21.52
2018-10-11T02:11:25.145Z,21.52
2018-10-11T02:13:52.197Z,21.51
2018-10-11T02:16:19.209Z,21.50
2018-10-11T02:18:46.229Z,21.52
2018-10-11T02:21:13.238Z,21.51
2018-10-11T02:23:40.385Z,21.51
2018-10-11T02:26:07.515Z,21.50
2018-10-11T02:28:34.541Z,21.51
2018-10-11T02:31:01.611Z,21.51
2018-10-11T02:33:28.633Z,21.51
2018-10-11T02:35:56.093Z,21.51
2018-10-11T02:38:23.143Z,21.51
2018-10-11T02:40:50.141Z,21.50
2018-10-11T02:43:17.176Z,21.51
2018-10-11T02:45:44.301Z,21.50
2018-10-11T02:48:11.370Z,21.51
2018-10-11T02:50:38.400Z,21.49
2018-10-11T02:53:05.469Z,21.50
2018-10-11T02:55:32.521Z,21.49
2018-10-11T02:57:59.618Z,21.48
2018-10-11T03:00:26.647Z,21.49
2018-10-11T03:02:53.677Z,21.48
2018-10-11T03:05:20.709Z,21.49
2018-10-11T03:07:47.712Z,21.49
2018-10-11T03:10:14.818Z,21.49
2018-10-11T03:12:41.833Z,21.48
2018-10-11T03:15:08.921Z,21.48
2018-10-11T03:17:35.954Z,21.49
2018-10-11T03:20:02.973Z,21.49
2018-10-11T03:22:30.001Z,21.49
2018-10-11T03:24:57.036Z,21.48
2018-10-11T03:27:24.057Z,21.48
2018-10-11T03:29:51.071Z,21.49
2018-10-11T03:32:18.092Z,21.49
2018-10-11T03:34:45.144Z,21.48
2018-10-11T03:37:12.205Z,21.48
2018-10-11T03:39:39.224Z,21.48
2018-10-11T03:42:06.232Z,21.47
2018-10-11T03:44:33.260Z,21.48
2018-10-11T03:47:00.294Z,21.49
2018-10-11T03:49:27.366Z,21.47
2018-10-11T03:51:54.379Z,21.48
2018-10-11T03:54:21.397Z,21.48
2018-10-11T03:56:48.467Z,21.48
2018-10-11T03:59:15.497Z,21.48
2018-10-11T04:01:42.484Z,21.48
2018-10-11T04:04:09.421Z,21.48
2018-10-11T04:06:36.397Z,21.47
2018-10-11T04:09:04.544Z,21.47
2018-10-11T04:11:31.481Z,21.48
2018-10-11T04:13:58.414Z,21.50
2018-10-11T04:16:25.339Z,21.48
2018-10-11T04:18:52.262Z,21.47
2018-10-11T04:21:19.173Z,21.48
2018-10-11T04:23:46.106Z,21.48
2018-10-11T04:26:13.014Z,21.47
2018-10-11T04:28:39.906Z,21.47
2018-10-11T04:31:06.807Z,21.47
2018-10-11T04:33:33.712Z,21.47
2018-10-11T04:36:00.664Z,21.46
2018-10-11T04:38:28.211Z,21.47
2018-10-11T04:40:55.183Z,21.47
2018-10-11T04:43:22.224Z,21.47
2018-10-11T04:45:49.084Z,21.47
2018-10-11T04:48:16.006Z,21.47
2018-10-11T04:50:44.082Z,21.47
2018-10-11T04:53:11.986Z,21.46
2018-10-11T04:55:38.986Z,21.47
2018-10-11T04:58:05.966Z,21.46
2018-10-11T05:00:32.939Z,21.46
2018-10-11T05:02:59.951Z,21.46
2018-10-11T05:05:26.980Z,21.46
2018-10-11T05:07:53.885Z,21.46
2018-10-11T05:10:20.793Z,21.46
2018-10-11T05:12:47.793Z,21.46
2018-10-11T05:15:14.822Z,21.46
2018-10-11T05:17:41.761Z,21.45
2018-10-11T05:20:08.806Z,21.44
2018-10-11T05:22:35.764Z,21.45
2018-10-11T05:25:02.714Z,21.45
2018-10-11T05:27:29.667Z,21.44
2018-10-11T05:29:57.008Z,21.45
2018-10-11T05:32:23.975Z,21.45
2018-10-11T05:34:50.963Z,21.45
2018-10-11T05:37:17.876Z,21.44
2018-10-11T05:39:44.874Z,21.45
2018-10-11T05:42:11.868Z,21.44
2018-10-11T05:44:38.846Z,21.44
2018-10-11T05:47:05.767Z,21.43
2018-10-11T05:49:32.723Z,21.42
2018-10-11T05:51:59.657Z,21.42
2018-10-11T05:54:26.601Z,21.43
2018-10-11T05:56:53.544Z,21.42
2018-10-11T05:59:20.525Z,21.44
2018-10-11T06:01:47.537Z,21.42
2018-10-11T06:04:14.513Z,21.41
2018-10-11T06:06:41.462Z,21.42
2018-10-11T06:09:08.406Z,21.42
2018-10-11T06:11:35.338Z,21.41
2018-10-11T06:14:02.301Z,21.41
2018-10-11T06:16:29.221Z,21.41
2018-10-11T06:18:56.165Z,21.42
2018-10-11T06:21:23.118Z,21.40
2018-10-11T06:23:50.438Z,21.02
2018-10-11T06:26:17.398Z,20.88
2018-10-11T06:28:44.349Z,20.76
2018-10-11T06:31:11.270Z,20.69
2018-10-11T06:33:38.152Z,20.73
2018-10-11T06:36:05.100Z,20.76
2018-10-11T06:38:32.029Z,20.76
2018-10-11T06:40:58.925Z,20.76
2018-10-11T06:43:25.837Z,20.75
2018-10-11T06:45:52.730Z,20.81
2018-10-11T06:48:19.630Z,20.84
2018-10-11T06:50:46.695Z,20.77
2018-10-11T06:53:13.598Z,20.73
2018-10-11T06:55:40.489Z,20.72
2018-10-11T06:58:07.373Z,20.70
2018-10-11T07:00:34.289Z,20.71
2018-10-11T07:03:01.182Z,20.72
2018-10-11T07:05:28.081Z,20.70
2018-10-11T07:07:54.970Z,20.68
2018-10-11T07:10:21.944Z,20.67
2018-10-11T07:12:48.837Z,20.66
2018-10-11T07:15:15.724Z,20.66
2018-10-11T07:17:42.616Z,20.65
2018-10-11T07:20:09.504Z,20.65
2018-10-11T07:22:36.393Z,20.65
2018-10-11T07:25:03.285Z,20.63
2018-10-11T07:27:30.183Z,20.65
2018-10-11T07:29:57.117Z,20.65
2018-10-11T07:32:24.010Z,20.66
2018-10-11T07:34:50.943Z,20.69
2018-10-11T07:37:17.813Z,20.70
2018-10-11T07:39:44.698Z,20.74
2018-10-11T07:42:11.606Z,20.72
2018-10-11T07:44:38.488Z,20.75
2018-10-11T07:47:05.381Z,20.74
2018-10-11T07:49:32.282Z,20.77
2018-10-11T07:51:59.190Z,20.77
2018-10-11T07:54:32.609Z,20.78
2018-10-11T07:56:59.522Z,20.81
2018-10-11T07:59:26.400Z,20.88
2018-10-11T08:04:26.661Z,20.93
2018-10-11T08:06:53.573Z,20.94
2018-10-11T08:09:20.494Z,20.94
2018-10-11T08:11:47.631Z,20.95
2018-10-11T08:14:14.763Z,20.97
2018-10-11T08:16:41.812Z,20.99
2018-10-11T08:19:09.142Z,20.98
2018-10-11T08:21:35.864Z,20.99
2018-10-11T08:24:02.762Z,21.01
2018-10-11T08:26:30.496Z,21.01
2018-10-11T08:28:57.003Z,21.01
2018-10-11T08:31:23.901Z,21.00
2018-10-11T08:33:50.798Z,21.02
2018-10-11T08:36:17.709Z,21.03
2018-10-11T08:38:44.598Z,21.02
2018-10-11T08:41:11.742Z,21.04
2018-10-11T08:43:38.696Z,21.05
2018-10-11T08:46:05.588Z,21.06
2018-10-11T08:48:32.476Z,21.07
2018-10-11T08:50:59.413Z,21.08
2018-10-11T08:53:26.329Z,21.10
2018-10-11T08:55:53.232Z,21.11
2018-10-11T08:58:20.104Z,21.12
2018-10-11T09:00:47.741Z,21.12
2018-10-11T09:03:14.693Z,21.13
2018-10-11T09:05:41.670Z,21.14
2018-10-11T09:08:08.509Z,21.15
2018-10-11T09:10:38.346Z,21.15
2018-10-11T09:13:02.362Z,21.17
2018-10-11T09:15:29.246Z,21.17
2018-10-11T09:17:56.129Z,21.18
2018-10-11T09:20:23.027Z,21.19
2018-10-11T09:22:49.924Z,21.19
2018-10-11T09:25:16.837Z,21.20
2018-10-11T09:27:43.729Z,21.22
2018-10-11T09:30:10.743Z,21.25
2018-10-11T09:32:37.596Z,21.25
2018-10-11T09:35:04.490Z,21.26
2018-10-11T09:37:31.478Z,21.28
2018-10-11T09:39:58.364Z,21.28
2018-10-11T09:42:25.269Z,21.30
2018-10-11T09:44:52.164Z,21.30
2018-10-11T09:47:19.050Z,21.30
2018-10-11T09:49:45.937Z,21.32
2018-10-11T09:52:12.829Z,21.32
2018-10-11T09:54:39.735Z,21.33
2018-10-11T09:57:06.633Z,21.34
2018-10-11T09:59:33.857Z,21.35
2018-10-11T10:02:00.937Z,21.36
2018-10-11T10:04:28.134Z,21.36
2018-10-11T10:06:55.184Z,21.38
2018-10-11T10:09:22.277Z,21.38
2018-10-11T10:11:49.994Z,21.39
2018-10-11T10:14:17.206Z,21.41
2018-10-11T10:16:44.153Z,21.41
2018-10-11T10:19:11.298Z,21.41
2018-10-11T10:21:38.373Z,21.44
2018-10-11T10:24:05.298Z,21.42
2018-10-11T10:26:32.527Z,21.45
2018-10-11T10:28:59.478Z,21.46
2018-10-11T10:31:26.462Z,21.46
2018-10-11T10:33:53.602Z,21.48
2018-10-11T10:36:20.944Z,21.49
2018-10-11T10:38:48.011Z,21.49
2018-10-11T10:41:14.897Z,21.51
2018-10-11T10:43:41.983Z,21.51
2018-10-11T10:46:09.005Z,21.52
2018-10-11T10:48:36.059Z,21.54
2018-10-11T10:51:03.026Z,21.54
2018-10-11T10:53:30.119Z,21.55
2018-10-11T10:55:57.019Z,21.49
2018-10-11T10:58:24.502Z,21.47
2018-10-11T11:00:51.523Z,21.53
2018-10-11T11:03:18.484Z,21.58
2018-10-11T11:05:45.557Z,21.55
2018-10-11T11:08:12.730Z,21.57
2018-10-11T11:10:39.688Z,21.58
2018-10-11T11:13:06.628Z,21.59
2018-10-11T11:15:33.570Z,21.55
2018-10-11T11:18:00.502Z,21.55
2018-10-11T11:20:27.486Z,21.56
2018-10-11T11:22:54.515Z,21.57
2018-10-11T11:25:21.516Z,21.54
2018-10-11T11:27:48.441Z,21.52
2018-10-11T11:30:15.345Z,21.53
2018-10-11T11:32:42.279Z,21.53
2018-10-11T11:35:09.231Z,21.54
2018-10-11T11:37:36.145Z,21.53
2018-10-11T11:40:03.079Z,21.54
2018-10-11T11:42:29.999Z,21.53
2018-10-11T11:44:56.964Z,21.53
2018-10-11T11:47:23.925Z,21.55
2018-10-11T11:49:50.815Z,21.54
2018-10-11T11:52:17.802Z,21.53
2018-10-11T11:54:44.709Z,21.53
2018-10-11T11:57:11.629Z,21.55
2018-10-11T11:59:38.730Z,21.55
2018-10-11T12:02:05.756Z,21.53
2018-10-11T12:04:32.696Z,21.54
2018-10-11T12:06:59.603Z,21.54
2018-10-11T12:09:26.643Z,21.54
2018-10-11T12:11:53.610Z,21.55
2018-10-11T12:14:20.533Z,21.52
2018-10-11T12:16:47.611Z,21.53
2018-10-11T12:19:14.445Z,21.54
2018-10-11T12:21:41.372Z,21.52
2018-10-11T12:24:08.376Z,21.55
2018-10-11T12:26:35.417Z,21.55
2018-10-11T12:29:02.492Z,21.54
2018-10-11T12:31:29.310Z,21.53
2018-10-11T12:33:56.304Z,21.53
2018-10-11T12:36:23.266Z,21.54
2018-10-11T12:38:50.430Z,21.54
2018-10-11T12:41:17.290Z,21.54
2018-10-11T12:43:44.295Z,21.54
2018-10-11T12:46:11.204Z,21.54
2018-10-11T12:48:38.652Z,21.56
2018-10-11T12:51:05.689Z,21.42
2018-10-11T12:53:32.618Z,21.55
2018-10-11T12:55:59.525Z,21.56
2018-10-11T12:58:26.444Z,21.55
2018-10-11T13:00:53.411Z,21.55
2018-10-11T13:03:20.469Z,21.54
2018-10-11T13:05:47.346Z,21.57
2018-10-11T13:08:14.312Z,21.56
2018-10-11T13:10:41.299Z,21.55
2018-10-11T13:13:08.212Z,21.54
2018-10-11T13:15:35.141Z,21.55
2018-10-11T13:18:02.052Z,21.57
2018-10-11T13:20:29.051Z,21.57
2018-10-11T13:22:55.961Z,21.55
2018-10-11T13:25:22.864Z,21.52
2018-10-11T13:27:49.745Z,21.51
2018-10-11T13:30:16.661Z,21.49
2018-10-11T13:32:43.561Z,21.46
2018-10-11T13:35:10.456Z,21.46
2018-10-11T13:37:37.369Z,21.46
2018-10-11T13:40:04.249Z,21.45
2018-10-11T13:42:31.161Z,21.44
2018-10-11T13:44:58.052Z,21.43
2018-10-11T13:47:25.008Z,21.42
2018-10-11T13:49:51.873Z,21.42
2018-10-11T13:52:21.684Z,21.45
2018-10-11T13:54:46.033Z,21.42
2018-10-11T13:57:12.917Z,21.41
2018-10-11T13:59:39.830Z,21.41
2018-10-11T14:02:06.722Z,21.40
2018-10-11T14:04:33.669Z,21.40
2018-10-11T14:07:00.529Z,21.40
2018-10-11T14:09:27.426Z,21.39
2018-10-11T14:11:54.305Z,21.39
2018-10-11T14:14:21.221Z,21.39
2018-10-11T14:16:48.195Z,21.37
2018-10-11T14:19:15.147Z,21.37
2018-10-11T14:21:42.033Z,21.37
2018-10-11T14:24:08.946Z,21.37
2018-10-11T14:26:35.845Z,21.36
2018-10-11T14:29:02.816Z,21.36
2018-10-11T14:31:29.702Z,21.37
2018-10-11T14:33:56.597Z,21.37
2018-10-11T14:36:23.917Z,21.36
2018-10-11T14:38:51.391Z,21.36
2018-10-11T14:41:18.294Z,21.36
2018-10-11T14:43:45.196Z,21.36
2018-10-11T14:46:12.096Z,21.36
2018-10-11T14:48:38.984Z,21.36
2018-10-11T14:51:05.965Z,21.36
2018-10-11T14:53:32.814Z,21.36
2018-10-11T14:55:59.719Z,21.36
2018-10-11T14:58:26.605Z,21.35
2018-10-11T15:00:53.484Z,21.36
2018-10-11T15:03:20.400Z,21.34
2018-10-11T15:05:47.303Z,21.35
2018-10-11T15:08:14.196Z,21.34
2018-10-11T15:10:41.268Z,21.35
2018-10-11T15:13:08.010Z,21.35
2018-10-11T15:15:34.898Z,21.35
2018-10-11T15:18:01.812Z,21.34
2018-10-11T15:20:28.733Z,21.36
2018-10-11T15:22:55.616Z,21.35
2018-10-11T15:25:22.497Z,21.35
2018-10-11T15:27:49.486Z,21.35
2018-10-11T15:30:16.374Z,21.34
2018-10-11T15:32:43.300Z,21.35
2018-10-11T15:35:10.227Z,21.34
2018-10-11T15:37:37.121Z,21.34
2018-10-11T15:40:04.010Z,21.34
2018-10-11T15:42:30.951Z,21.34
2018-10-11T15:44:57.849Z,21.34
2018-10-11T15:47:24.743Z,21.34
2018-10-11T15:49:51.633Z,21.33
2018-10-11T15:52:18.532Z,21.34
2018-10-11T15:54:45.422Z,21.34
2018-10-11T15:57:12.334Z,21.34
2018-10-11T15:59:39.243Z,21.34
2018-10-11T16:02:06.142Z,21.34
2018-10-11T16:04:33.077Z,21.33
2018-10-11T16:06:59.969Z,21.33
2018-10-11T16:09:26.897Z,21.34
2018-10-11T16:11:53.941Z,21.33
2018-10-11T16:14:20.798Z,21.33
2018-10-11T16:16:48.046Z,21.33
2018-10-11T16:19:14.909Z,21.33
2018-10-11T16:21:41.796Z,21.33
2018-10-11T16:24:08.700Z,21.33
2018-10-11T16:26:35.597Z,21.33
2018-10-11T16:29:02.480Z,21.33
2018-10-11T16:31:29.380Z,21.33
2018-10-11T16:33:56.265Z,21.33
2018-10-11T16:36:23.163Z,21.33
2018-10-11T16:38:50.375Z,21.33
2018-10-11T16:41:17.293Z,21.34
2018-10-11T16:43:44.194Z,21.33
2018-10-11T16:46:11.111Z,21.34
2018-10-11T16:48:37.999Z,21.33
2018-10-11T16:51:05.107Z,21.33
2018-10-11T16:53:32.121Z,21.32
2018-10-11T16:55:59.008Z,21.33
2018-10-11T16:58:25.902Z,21.33
2018-10-11T17:00:52.785Z,21.33
2018-10-11T17:03:19.850Z,21.33
2018-10-11T17:05:46.762Z,21.32
2018-10-11T17:08:13.649Z,21.33
2018-10-11T17:10:40.537Z,21.33
2018-10-11T17:13:07.452Z,21.32
2018-10-11T17:15:34.356Z,21.33
2018-10-11T17:18:01.246Z,21.32
2018-10-11T17:20:28.167Z,21.33
2018-10-11T17:22:55.053Z,21.34
2018-10-11T17:25:21.963Z,21.33
2018-10-11T17:27:48.854Z,21.32
2018-10-11T17:30:15.750Z,21.36
2018-10-11T17:32:42.628Z,21.38
2018-10-11T17:35:09.537Z,21.38
2018-10-11T17:37:36.677Z,21.37
2018-10-11T17:40:03.565Z,21.36
2018-10-11T17:42:30.454Z,21.36
2018-10-11T17:44:57.345Z,21.37
2018-10-11T17:47:24.240Z,21.37
2018-10-11T17:49:51.143Z,21.36
2018-10-11T17:52:18.080Z,21.37
2018-10-11T17:54:50.468Z,21.37
2018-10-11T17:57:17.390Z,21.37
2018-10-11T17:59:44.349Z,21.36
2018-10-11T18:02:11.269Z,21.37
2018-10-11T18:04:38.145Z,21.37
2018-10-11T18:07:05.044Z,21.37
2018-10-11T18:09:31.958Z,21.37
2018-10-11T18:11:58.846Z,21.36
2018-10-11T18:14:25.733Z,21.37
2018-10-11T18:16:52.621Z,21.36
2018-10-11T18:19:19.514Z,21.37
2018-10-11T18:21:46.556Z,21.37
2018-10-11T18:24:13.453Z,21.37
2018-10-11T18:26:40.359Z,21.37
2018-10-11T18:29:07.251Z,21.37
2018-10-11T18:31:34.148Z,21.37
2018-10-11T18:34:01.040Z,21.36
2018-10-11T18:36:27.940Z,21.37
2018-10-11T18:38:54.853Z,21.37
2018-10-11T18:41:21.741Z,21.37
2018-10-11T18:43:48.638Z,21.38
2018-10-11T18:46:15.652Z,21.36
2018-10-11T18:48:42.518Z,21.37
2018-10-11T18:51:09.414Z,21.37
2018-10-11T18:53:36.297Z,21.37
2018-10-11T18:56:03.230Z,21.37
2018-10-11T18:58:30.118Z,21.36
2018-10-11T19:00:57.006Z,21.36
2018-10-11T19:03:23.893Z,21.37
2018-10-11T19:05:50.796Z,21.37
2018-10-11T19:08:18.069Z,21.37
2018-10-11T19:10:44.627Z,21.37
2018-10-11T19:13:11.518Z,21.40
2018-10-11T19:15:38.420Z,21.40
2018-10-11T19:18:05.359Z,21.43
2018-10-11T19:20:32.333Z,21.44
2018-10-11T19:22:59.318Z,21.45
2018-10-11T19:25:26.237Z,21.45
2018-10-11T19:27:53.581Z,21.45
2018-10-11T19:30:20.581Z,21.46
2018-10-11T19:32:47.779Z,21.46
2018-10-11T19:35:14.763Z,21.47
2018-10-11T19:37:41.726Z,21.48
2018-10-11T19:40:08.677Z,21.47
2018-10-11T19:42:35.631Z,21.48
2018-10-11T19:45:02.541Z,21.49
2018-10-11T19:47:29.513Z,21.47
2018-10-11T19:49:56.474Z,21.49
2018-10-11T19:52:23.468Z,21.48
2018-10-11T19:54:50.401Z,21.49
2018-10-11T19:57:17.326Z,21.49
2018-10-11T19:59:44.282Z,21.50
2018-10-11T20:02:11.210Z,21.49
2018-10-11T20:04:38.152Z,21.50
2018-10-11T20:07:05.133Z,21.51
2018-10-11T20:09:32.109Z,21.49
2018-10-11T20:11:59.059Z,21.50
2018-10-11T20:14:26.005Z,21.50
2018-10-11T20:16:53.042Z,21.49
2018-10-11T20:19:20.008Z,21.50
2018-10-11T20:21:47.079Z,21.49
2018-10-11T20:24:14.105Z,21.50
2018-10-11T20:26:41.098Z,21.50
2018-10-11T20:29:08.089Z,21.50
2018-10-11T20:31:35.054Z,21.51
2018-10-11T20:34:02.037Z,21.51
2018-10-11T20:36:28.985Z,21.50
2018-10-11T20:38:55.939Z,21.51
2018-10-11T20:41:22.874Z,21.50
2018-10-11T20:43:49.813Z,21.50
2018-10-11T20:46:16.902Z,21.52
2018-10-11T20:48:43.833Z,21.52
2018-10-11T20:51:10.822Z,21.51
2018-10-11T20:53:37.824Z,21.51
2018-10-11T20:56:04.766Z,21.51
2018-10-11T20:58:31.680Z,21.51
2018-10-11T21:00:58.668Z,21.51
2018-10-11T21:03:25.636Z,21.52
2018-10-11T21:05:52.683Z,21.52
2018-10-11T21:08:19.523Z,21.52
2018-10-11T21:10:46.448Z,21.51
2018-10-11T21:13:13.376Z,21.52
2018-10-11T21:15:40.289Z,21.52
2018-10-11T21:18:07.208Z,21.53
2018-10-11T21:20:35.251Z,21.51
2018-10-11T21:23:02.108Z,21.51
2018-10-11T21:25:29.046Z,21.52
2018-10-11T21:27:56.372Z,21.51
2018-10-11T21:30:23.406Z,21.52
2018-10-11T21:32:50.402Z,21.52
2018-10-11T21:35:19.447Z,21.51
2018-10-11T21:37:46.813Z,21.53
2018-10-11T21:40:13.991Z,21.51
2018-10-11T21:42:41.036Z,21.51
2018-10-11T21:45:08.057Z,21.52
2018-10-11T21:47:34.953Z,21.52
2018-10-11T21:50:01.890Z,21.52
2018-10-11T21:52:28.880Z,21.52
2018-10-11T21:54:55.810Z,21.52
2018-10-11T21:57:22.729Z,21.52
2018-10-11T21:59:49.707Z,21.53
2018-10-11T22:02:16.628Z,21.52
2018-10-11T22:04:43.557Z,21.52
2018-10-11T22:07:10.495Z,21.51
2018-10-11T22:09:37.448Z,21.52
2018-10-11T22:12:04.397Z,21.53
2018-10-11T22:14:31.409Z,21.51
2018-10-11T22:16:58.261Z,21.52
2018-10-11T22:19:25.386Z,21.52
2018-10-11T22:21:52.284Z,21.52
2018-10-11T22:24:19.246Z,21.52
2018-10-11T22:26:46.173Z,21.52
2018-10-11T22:29:13.072Z,21.53
2018-10-11T22:31:39.984Z,21.53
2018-10-11T22:34:06.909Z,21.53
2018-10-11T22:36:33.880Z,21.52
2018-10-11T22:39:00.780Z,21.52
2018-10-11T22:41:27.731Z,21.51
2018-10-11T22:43:54.807Z,21.52
2018-10-11T22:46:21.733Z,21.52
2018-10-11T22:48:48.667Z,21.52
2018-10-11T22:51:15.566Z,21.51
2018-10-11T22:53:42.973Z,21.52
2018-10-11T22:56:09.936Z,21.52
2018-10-11T22:58:36.897Z,21.52
2018-10-11T23:01:03.825Z,21.52
2018-10-11T23:03:30.769Z,21.53
2018-10-11T23:05:57.657Z,21.52
2018-10-11T23:08:24.599Z,21.52
2018-10-11T23:10:51.542Z,21.53
2018-10-11T23:13:18.452Z,21.52
2018-10-11T23:15:45.427Z,21.54
2018-10-11T23:18:12.403Z,21.52
2018-10-11T23:20:39.315Z,21.53
2018-10-11T23:23:06.223Z,21.53
2018-10-11T23:25:33.135Z,21.53
2018-10-11T23:28:00.057Z,21.52
2018-10-11T23:30:27.014Z,21.52
2018-10-11T23:32:53.961Z,21.52
2018-10-11T23:35:20.907Z,21.53
2018-10-11T23:37:47.879Z,21.53
2018-10-11T23:40:14.886Z,21.52
2018-10-11T23:42:42.166Z,21.52
2018-10-11T23:45:10.041Z,21.52
2018-10-11T23:47:36.956Z,21.52
2018-10-11T23:50:03.869Z,21.52
2018-10-11T23:52:30.789Z,21.53
2018-10-11T23:54:57.718Z,21.52
2018-10-11T23:57:24.641Z,21.52
2018-10-11T23:59:51.568Z,21.53
